sensor_id;sensor_type;location;lat;lon;timestamp;pressure;altitude;pressure_sealevel;temperature;humidity
72486;BME280;60509;47.308;-122.428;2022-12-07T00:00:01;101062.21;;;-2.32;53.01
72486;BME280;60509;47.308;-122.428;2022-12-07T00:02:26;101060.01;;;-2.55;54.03
72486;BME280;60509;47.308;-122.428;2022-12-07T00:04:53;101062.28;;;-2.19;53.03
72486;BME280;60509;47.308;-122.428;2022-12-07T00:07:17;101060.77;;;-2.54;53.43
72486;BME280;60509;47.308;-122.428;2022-12-07T00:09:43;101060.78;;;-2.27;52.29
72486;BME280;60509;47.308;-122.428;2022-12-07T00:12:08;101061.03;;;-2.40;53.49
72486;BME280;60509;47.308;-122.428;2022-12-07T00:14:34;101055.84;;;-1.88;52.47
72486;BME280;60509;47.308;-122.428;2022-12-07T00:17:00;101061.35;;;-3.04;55.09
72486;BME280;60509;47.308;-122.428;2022-12-07T00:19:26;101058.33;;;-2.87;55.67
72486;BME280;60509;47.308;-122.428;2022-12-07T00:21:50;101061.16;;;-3.46;55.46
72486;BME280;60509;47.308;-122.428;2022-12-07T00:24:16;101062.84;;;-3.12;55.06
72486;BME280;60509;47.308;-122.428;2022-12-07T00:26:42;101065.82;;;-3.73;57.05
72486;BME280;60509;47.308;-122.428;2022-12-07T00:29:09;101061.05;;;-3.47;55.73
72486;BME280;60509;47.308;-122.428;2022-12-07T00:31:34;101058.74;;;-2.70;55.13
72486;BME280;60509;47.308;-122.428;2022-12-07T00:33:58;101063.00;;;-2.34;54.58
72486;BME280;60509;47.308;-122.428;2022-12-07T00:36:25;101070.05;;;-5.40;58.78
72486;BME280;60509;47.308;-122.428;2022-12-07T00:38:49;101068.33;;;-2.63;54.38
72486;BME280;60509;47.308;-122.428;2022-12-07T00:41:16;101072.08;;;-2.45;53.88
72486;BME280;60509;47.308;-122.428;2022-12-07T00:43:41;101072.21;;;-2.12;53.63
72486;BME280;60509;47.308;-122.428;2022-12-07T00:46:06;101067.95;;;-0.82;52.01
72486;BME280;60509;47.308;-122.428;2022-12-07T00:48:31;101072.38;;;-1.64;52.53
72486;BME280;60509;47.308;-122.428;2022-12-07T00:50:57;101074.13;;;-2.39;53.62
72486;BME280;60509;47.308;-122.428;2022-12-07T00:53:22;101074.97;;;-2.30;53.86
72486;BME280;60509;47.308;-122.428;2022-12-07T00:55:49;101079.93;;;-3.84;55.77
72486;BME280;60509;47.308;-122.428;2022-12-07T00:58:14;101079.08;;;-3.74;55.96
72486;BME280;60509;47.308;-122.428;2022-12-07T01:00:41;101078.44;;;-3.22;55.32
72486;BME280;60509;47.308;-122.428;2022-12-07T01:03:05;101080.67;;;-3.96;56.74
72486;BME280;60509;47.308;-122.428;2022-12-07T01:05:30;101085.07;;;-3.44;56.85
72486;BME280;60509;47.308;-122.428;2022-12-07T01:07:56;101086.08;;;-3.48;57.04
72486;BME280;60509;47.308;-122.428;2022-12-07T01:10:21;101081.91;;;-3.53;57.24
72486;BME280;60509;47.308;-122.428;2022-12-07T01:12:46;101087.32;;;-2.68;56.28
72486;BME280;60509;47.308;-122.428;2022-12-07T01:15:12;101087.20;;;-4.81;59.67
72486;BME280;60509;47.308;-122.428;2022-12-07T01:17:38;101086.86;;;-2.99;56.64
72486;BME280;60509;47.308;-122.428;2022-12-07T01:20:04;101089.93;;;-3.32;57.00
72486;BME280;60509;47.308;-122.428;2022-12-07T01:22:29;101097.73;;;-3.99;59.16
72486;BME280;60509;47.308;-122.428;2022-12-07T01:24:54;101096.70;;;-4.06;58.73
72486;BME280;60509;47.308;-122.428;2022-12-07T01:27:20;101090.23;;;-3.00;57.11
72486;BME280;60509;47.308;-122.428;2022-12-07T01:29:45;101090.33;;;-2.53;55.08
72486;BME280;60509;47.308;-122.428;2022-12-07T01:32:11;101087.28;;;-3.18;55.75
72486;BME280;60509;47.308;-122.428;2022-12-07T01:34:37;101092.47;;;-4.14;58.34
72486;BME280;60509;47.308;-122.428;2022-12-07T01:37:02;101085.45;;;-4.42;59.14
72486;BME280;60509;47.308;-122.428;2022-12-07T01:39:27;101079.39;;;-3.25;57.43
72486;BME280;60509;47.308;-122.428;2022-12-07T01:41:53;101076.16;;;-2.55;55.44
72486;BME280;60509;47.308;-122.428;2022-12-07T01:44:22;101077.86;;;-2.83;56.15
72486;BME280;60509;47.308;-122.428;2022-12-07T01:46:46;101081.07;;;-2.38;55.68
72486;BME280;60509;47.308;-122.428;2022-12-07T01:49:12;101081.79;;;-2.61;55.84
72486;BME280;60509;47.308;-122.428;2022-12-07T01:51:38;101087.75;;;-2.11;54.93
72486;BME280;60509;47.308;-122.428;2022-12-07T01:54:01;101091.10;;;-4.11;59.92
72486;BME280;60509;47.308;-122.428;2022-12-07T01:56:28;101091.09;;;-3.54;57.83
72486;BME280;60509;47.308;-122.428;2022-12-07T01:58:52;101095.66;;;-5.00;60.02
72486;BME280;60509;47.308;-122.428;2022-12-07T02:01:18;101096.24;;;-3.16;57.90
72486;BME280;60509;47.308;-122.428;2022-12-07T02:03:45;101098.73;;;-3.51;56.94
72486;BME280;60509;47.308;-122.428;2022-12-07T02:06:14;101107.03;;;-4.10;58.49
72486;BME280;60509;47.308;-122.428;2022-12-07T02:08:35;101102.84;;;-2.89;57.64
72486;BME280;60509;47.308;-122.428;2022-12-07T02:11:00;101106.54;;;-4.60;59.43
72486;BME280;60509;47.308;-122.428;2022-12-07T02:13:27;101104.73;;;-4.22;60.02
72486;BME280;60509;47.308;-122.428;2022-12-07T02:16:19;101104.67;;;-3.67;58.92
72486;BME280;60509;47.308;-122.428;2022-12-07T02:18:20;101104.07;;;-3.40;57.40
72486;BME280;60509;47.308;-122.428;2022-12-07T02:20:47;101103.37;;;-3.58;58.41
72486;BME280;60509;47.308;-122.428;2022-12-07T02:23:26;101103.29;;;-3.09;57.69
72486;BME280;60509;47.308;-122.428;2022-12-07T02:25:49;101106.84;;;-3.62;58.03
72486;BME280;60509;47.308;-122.428;2022-12-07T02:28:04;101112.07;;;-3.82;58.72
72486;BME280;60509;47.308;-122.428;2022-12-07T02:30:30;101108.50;;;-4.13;58.87
72486;BME280;60509;47.308;-122.428;2022-12-07T02:32:57;101107.14;;;-4.54;59.03
72486;BME280;60509;47.308;-122.428;2022-12-07T02:35:20;101107.92;;;-3.90;57.94
72486;BME280;60509;47.308;-122.428;2022-12-07T02:37:44;101100.83;;;-3.63;57.18
72486;BME280;60509;47.308;-122.428;2022-12-07T02:40:11;101103.66;;;-3.92;56.79
72486;BME280;60509;47.308;-122.428;2022-12-07T02:42:36;101108.59;;;-4.01;57.76
72486;BME280;60509;47.308;-122.428;2022-12-07T02:44:58;101101.84;;;-3.78;56.70
72486;BME280;60509;47.308;-122.428;2022-12-07T02:47:25;101109.39;;;-4.00;57.67
72486;BME280;60509;47.308;-122.428;2022-12-07T02:49:50;101106.63;;;-3.68;56.16
72486;BME280;60509;47.308;-122.428;2022-12-07T02:52:14;101111.09;;;-2.77;55.18
72486;BME280;60509;47.308;-122.428;2022-12-07T02:54:39;101116.73;;;-3.74;56.37
72486;BME280;60509;47.308;-122.428;2022-12-07T02:57:17;101113.50;;;-3.44;57.10
72486;BME280;60509;47.308;-122.428;2022-12-07T02:59:39;101117.65;;;-3.90;57.33
72486;BME280;60509;47.308;-122.428;2022-12-07T03:02:06;101114.62;;;-3.74;57.11
72486;BME280;60509;47.308;-122.428;2022-12-07T03:04:31;101113.08;;;-4.06;57.56
72486;BME280;60509;47.308;-122.428;2022-12-07T03:06:50;101112.32;;;-3.70;57.46
72486;BME280;60509;47.308;-122.428;2022-12-07T03:09:17;101108.87;;;-2.77;54.66
72486;BME280;60509;47.308;-122.428;2022-12-07T03:11:44;101119.25;;;-4.22;57.11
72486;BME280;60509;47.308;-122.428;2022-12-07T03:14:07;101115.32;;;-3.54;55.34
72486;BME280;60509;47.308;-122.428;2022-12-07T03:16:30;101111.78;;;-1.93;53.24
72486;BME280;60509;47.308;-122.428;2022-12-07T03:18:57;101118.13;;;-3.12;55.45
72486;BME280;60509;47.308;-122.428;2022-12-07T03:21:21;101117.94;;;-2.39;54.37
72486;BME280;60509;47.308;-122.428;2022-12-07T03:23:46;101127.08;;;-3.67;55.32
72486;BME280;60509;47.308;-122.428;2022-12-07T03:26:13;101128.64;;;-2.82;55.14
72486;BME280;60509;47.308;-122.428;2022-12-07T03:28:39;101129.96;;;-3.12;56.55
72486;BME280;60509;47.308;-122.428;2022-12-07T03:31:05;101132.23;;;-4.55;57.61
72486;BME280;60509;47.308;-122.428;2022-12-07T03:33:31;101133.73;;;-3.65;57.57
72486;BME280;60509;47.308;-122.428;2022-12-07T03:35:55;101132.99;;;-3.79;57.58
72486;BME280;60509;47.308;-122.428;2022-12-07T03:38:20;101133.06;;;-3.36;57.39
72486;BME280;60509;47.308;-122.428;2022-12-07T03:40:48;101132.28;;;-3.65;58.06
72486;BME280;60509;47.308;-122.428;2022-12-07T03:43:09;101131.18;;;-2.49;55.94
72486;BME280;60509;47.308;-122.428;2022-12-07T03:45:40;101134.27;;;-3.46;56.07
72486;BME280;60509;47.308;-122.428;2022-12-07T03:48:07;101138.39;;;-3.04;55.53
72486;BME280;60509;47.308;-122.428;2022-12-07T03:50:31;101142.37;;;-3.11;55.80
72486;BME280;60509;47.308;-122.428;2022-12-07T03:52:54;101142.12;;;-1.99;53.82
72486;BME280;60509;47.308;-122.428;2022-12-07T03:55:20;101138.15;;;-3.14;55.49
72486;BME280;60509;47.308;-122.428;2022-12-07T03:57:43;101136.86;;;-3.37;55.69
72486;BME280;60509;47.308;-122.428;2022-12-07T04:00:12;101136.14;;;-1.81;53.71
72486;BME280;60509;47.308;-122.428;2022-12-07T04:02:34;101135.35;;;-2.58;54.80
72486;BME280;60509;47.308;-122.428;2022-12-07T04:05:00;101136.36;;;-2.26;54.31
72486;BME280;60509;47.308;-122.428;2022-12-07T04:07:25;101135.22;;;-2.14;53.92
72486;BME280;60509;47.308;-122.428;2022-12-07T04:09:50;101133.23;;;-2.47;53.88
72486;BME280;60509;47.308;-122.428;2022-12-07T04:12:16;101135.70;;;-2.98;54.63
72486;BME280;60509;47.308;-122.428;2022-12-07T04:14:41;101133.27;;;-2.36;55.05
72486;BME280;60509;47.308;-122.428;2022-12-07T04:17:09;101131.59;;;-2.56;54.05
72486;BME280;60509;47.308;-122.428;2022-12-07T04:19:35;101133.55;;;-2.30;53.39
72486;BME280;60509;47.308;-122.428;2022-12-07T04:22:01;101135.07;;;-3.08;54.11
72486;BME280;60509;47.308;-122.428;2022-12-07T04:24:25;101139.44;;;-2.28;53.60
72486;BME280;60509;47.308;-122.428;2022-12-07T04:26:51;101134.61;;;-0.21;50.63
72486;BME280;60509;47.308;-122.428;2022-12-07T04:29:17;101138.22;;;-0.46;50.69
72486;BME280;60509;47.308;-122.428;2022-12-07T04:31:43;101141.69;;;-2.04;53.21
72486;BME280;60509;47.308;-122.428;2022-12-07T04:34:07;101141.60;;;-1.02;51.37
72486;BME280;60509;47.308;-122.428;2022-12-07T04:36:33;101146.11;;;-2.11;53.67
72486;BME280;60509;47.308;-122.428;2022-12-07T04:38:58;101141.14;;;-1.63;52.05
72486;BME280;60509;47.308;-122.428;2022-12-07T04:41:25;101145.37;;;-0.64;50.72
72486;BME280;60509;47.308;-122.428;2022-12-07T04:43:49;101149.13;;;-1.72;52.12
72486;BME280;60509;47.308;-122.428;2022-12-07T04:46:17;101149.47;;;-2.47;53.24
72486;BME280;60509;47.308;-122.428;2022-12-07T04:48:41;101151.06;;;-2.95;54.42
72486;BME280;60509;47.308;-122.428;2022-12-07T04:51:06;101146.79;;;-0.90;51.82
72486;BME280;60509;47.308;-122.428;2022-12-07T04:53:31;101145.04;;;-1.31;51.83
72486;BME280;60509;47.308;-122.428;2022-12-07T04:55:57;101150.15;;;-0.81;50.79
72486;BME280;60509;47.308;-122.428;2022-12-07T04:58:23;101153.80;;;0.12;49.49
72486;BME280;60509;47.308;-122.428;2022-12-07T05:00:47;101156.04;;;-0.35;49.70
72486;BME280;60509;47.308;-122.428;2022-12-07T05:03:13;101159.26;;;0.04;48.87
72486;BME280;60509;47.308;-122.428;2022-12-07T05:05:41;101162.55;;;0.21;48.64
72486;BME280;60509;47.308;-122.428;2022-12-07T05:08:04;101165.97;;;-0.11;49.32
72486;BME280;60509;47.308;-122.428;2022-12-07T05:10:29;101163.93;;;0.49;47.99
72486;BME280;60509;47.308;-122.428;2022-12-07T05:12:55;101163.40;;;-2.16;51.12
72486;BME280;60509;47.308;-122.428;2022-12-07T05:15:20;101164.18;;;-2.19;51.85
72486;BME280;60509;47.308;-122.428;2022-12-07T05:17:46;101158.54;;;-1.56;51.14
72486;BME280;60509;47.308;-122.428;2022-12-07T05:20:12;101158.11;;;-3.13;53.01
72486;BME280;60509;47.308;-122.428;2022-12-07T05:22:37;101155.75;;;-1.41;51.01
72486;BME280;60509;47.308;-122.428;2022-12-07T05:25:03;101156.69;;;-0.22;49.49
72486;BME280;60509;47.308;-122.428;2022-12-07T05:27:28;101159.62;;;-1.72;51.33
72486;BME280;60509;47.308;-122.428;2022-12-07T05:29:54;101161.50;;;-1.44;50.28
72486;BME280;60509;47.308;-122.428;2022-12-07T05:32:19;101166.66;;;-1.76;51.01
72486;BME280;60509;47.308;-122.428;2022-12-07T05:34:45;101166.00;;;-2.63;52.27
72486;BME280;60509;47.308;-122.428;2022-12-07T05:37:10;101168.28;;;-2.21;52.00
72486;BME280;60509;47.308;-122.428;2022-12-07T05:39:36;101171.07;;;-3.58;54.47
72486;BME280;60509;47.308;-122.428;2022-12-07T05:42:02;101168.30;;;-3.12;53.52
72486;BME280;60509;47.308;-122.428;2022-12-07T05:44:27;101172.16;;;-2.30;53.05
72486;BME280;60509;47.308;-122.428;2022-12-07T05:46:53;101171.99;;;-1.63;51.71
72486;BME280;60509;47.308;-122.428;2022-12-07T05:49:18;101177.56;;;-2.64;53.71
72486;BME280;60509;47.308;-122.428;2022-12-07T05:51:44;101181.45;;;-3.74;54.71
72486;BME280;60509;47.308;-122.428;2022-12-07T05:54:10;101186.35;;;-4.33;56.82
72486;BME280;60509;47.308;-122.428;2022-12-07T05:56:35;101187.25;;;-4.43;58.54
72486;BME280;60509;47.308;-122.428;2022-12-07T05:59:01;101190.23;;;-3.20;56.08
72486;BME280;60509;47.308;-122.428;2022-12-07T06:01:26;101192.90;;;-3.50;56.49
72486;BME280;60509;47.308;-122.428;2022-12-07T06:03:52;101193.90;;;-4.32;58.10
72486;BME280;60509;47.308;-122.428;2022-12-07T06:06:17;101191.22;;;-3.55;56.76
72486;BME280;60509;47.308;-122.428;2022-12-07T06:08:43;101187.65;;;-3.70;57.15
72486;BME280;60509;47.308;-122.428;2022-12-07T06:11:09;101188.17;;;-3.17;56.04
72486;BME280;60509;47.308;-122.428;2022-12-07T06:13:35;101187.25;;;-4.64;58.09
72486;BME280;60509;47.308;-122.428;2022-12-07T06:16:00;101187.46;;;-3.20;56.47
72486;BME280;60509;47.308;-122.428;2022-12-07T06:18:25;101193.25;;;-3.28;56.41
72486;BME280;60509;47.308;-122.428;2022-12-07T06:20:51;101196.06;;;-3.00;56.03
72486;BME280;60509;47.308;-122.428;2022-12-07T06:23:16;101193.22;;;-3.73;55.55
72486;BME280;60509;47.308;-122.428;2022-12-07T06:25:46;101191.24;;;-2.14;54.26
72486;BME280;60509;47.308;-122.428;2022-12-07T06:28:08;101192.25;;;-2.07;53.66
72486;BME280;60509;47.308;-122.428;2022-12-07T06:30:33;101192.56;;;-3.02;55.19
72486;BME280;60509;47.308;-122.428;2022-12-07T06:32:59;101193.28;;;-3.64;56.96
72486;BME280;60509;47.308;-122.428;2022-12-07T06:35:24;101191.73;;;-3.03;55.45
72486;BME280;60509;47.308;-122.428;2022-12-07T06:37:50;101187.84;;;-2.03;54.13
72486;BME280;60509;47.308;-122.428;2022-12-07T06:40:16;101190.30;;;-2.63;54.72
72486;BME280;60509;47.308;-122.428;2022-12-07T06:42:41;101190.08;;;-3.58;56.56
72486;BME280;60509;47.308;-122.428;2022-12-07T06:45:07;101190.86;;;-2.36;53.26
72486;BME280;60509;47.308;-122.428;2022-12-07T06:47:32;101191.22;;;-1.70;52.36
72486;BME280;60509;47.308;-122.428;2022-12-07T06:49:58;101193.94;;;-0.48;50.60
72486;BME280;60509;47.308;-122.428;2022-12-07T06:52:23;101191.63;;;-0.27;50.39
72486;BME280;60509;47.308;-122.428;2022-12-07T06:54:49;101194.33;;;-0.47;50.09
72486;BME280;60509;47.308;-122.428;2022-12-07T06:57:15;101193.58;;;-0.57;49.70
72486;BME280;60509;47.308;-122.428;2022-12-07T06:59:40;101196.47;;;-1.09;50.46
72486;BME280;60509;47.308;-122.428;2022-12-07T07:02:07;101199.19;;;-0.97;50.60
72486;BME280;60509;47.308;-122.428;2022-12-07T07:04:31;101203.16;;;-0.73;50.56
72486;BME280;60509;47.308;-122.428;2022-12-07T07:06:57;101204.72;;;-0.07;49.48
72486;BME280;60509;47.308;-122.428;2022-12-07T07:09:22;101211.89;;;-1.37;51.14
72486;BME280;60509;47.308;-122.428;2022-12-07T07:11:48;101211.44;;;-1.47;50.88
72486;BME280;60509;47.308;-122.428;2022-12-07T07:14:14;101210.60;;;-0.97;49.92
72486;BME280;60509;47.308;-122.428;2022-12-07T07:16:39;101209.31;;;-1.12;50.72
72486;BME280;60509;47.308;-122.428;2022-12-07T07:19:04;101211.55;;;-0.53;49.10
72486;BME280;60509;47.308;-122.428;2022-12-07T07:21:30;101209.95;;;-0.64;49.33
72486;BME280;60509;47.308;-122.428;2022-12-07T07:23:56;101213.08;;;-2.91;51.77
72486;BME280;60509;47.308;-122.428;2022-12-07T07:26:21;101210.35;;;-1.40;50.16
72486;BME280;60509;47.308;-122.428;2022-12-07T07:28:47;101204.76;;;-0.96;49.40
72486;BME280;60509;47.308;-122.428;2022-12-07T07:31:12;101200.68;;;-1.16;50.32
72486;BME280;60509;47.308;-122.428;2022-12-07T07:33:38;101200.01;;;-0.55;49.42
72486;BME280;60509;47.308;-122.428;2022-12-07T07:36:04;101204.85;;;-0.15;49.14
72486;BME280;60509;47.308;-122.428;2022-12-07T07:38:29;101204.66;;;-1.07;49.35
72486;BME280;60509;47.308;-122.428;2022-12-07T07:40:54;101202.56;;;-0.73;49.48
72486;BME280;60509;47.308;-122.428;2022-12-07T07:43:20;101204.34;;;-1.06;49.70
72486;BME280;60509;47.308;-122.428;2022-12-07T07:45:46;101203.09;;;-0.22;48.84
72486;BME280;60509;47.308;-122.428;2022-12-07T07:48:11;101205.42;;;-1.23;50.09
72486;BME280;60509;47.308;-122.428;2022-12-07T07:50:37;101199.99;;;-0.81;49.48
72486;BME280;60509;47.308;-122.428;2022-12-07T07:53:03;101196.20;;;-0.96;49.60
72486;BME280;60509;47.308;-122.428;2022-12-07T07:55:28;101194.72;;;-1.53;49.71
72486;BME280;60509;47.308;-122.428;2022-12-07T07:57:54;101190.55;;;-1.25;49.22
72486;BME280;60509;47.308;-122.428;2022-12-07T08:00:19;101190.64;;;-0.72;48.95
72486;BME280;60509;47.308;-122.428;2022-12-07T08:02:45;101193.74;;;-1.74;49.79
72486;BME280;60509;47.308;-122.428;2022-12-07T08:05:10;101191.17;;;-2.30;49.79
72486;BME280;60509;47.308;-122.428;2022-12-07T08:07:36;101194.18;;;-2.76;51.04
72486;BME280;60509;47.308;-122.428;2022-12-07T08:10:01;101192.10;;;-2.54;51.00
72486;BME280;60509;47.308;-122.428;2022-12-07T08:12:27;101192.32;;;-1.16;49.19
72486;BME280;60509;47.308;-122.428;2022-12-07T08:14:52;101187.27;;;-1.64;49.44
72486;BME280;60509;47.308;-122.428;2022-12-07T08:17:18;101184.53;;;-1.90;49.82
72486;BME280;60509;47.308;-122.428;2022-12-07T08:19:44;101187.95;;;-0.85;48.09
72486;BME280;60509;47.308;-122.428;2022-12-07T08:22:09;101190.33;;;-2.34;50.29
72486;BME280;60509;47.308;-122.428;2022-12-07T08:24:35;101193.30;;;-2.94;51.13
72486;BME280;60509;47.308;-122.428;2022-12-07T08:27:01;101188.15;;;-2.25;49.61
72486;BME280;60509;47.308;-122.428;2022-12-07T08:29:26;101181.97;;;-0.42;47.81
72486;BME280;60509;47.308;-122.428;2022-12-07T08:31:52;101180.75;;;-0.38;47.32
72486;BME280;60509;47.308;-122.428;2022-12-07T08:34:17;101180.48;;;0.20;46.50
72486;BME280;60509;47.308;-122.428;2022-12-07T08:36:42;101178.74;;;-0.10;46.51
72486;BME280;60509;47.308;-122.428;2022-12-07T08:39:08;101182.94;;;-0.41;47.63
72486;BME280;60509;47.308;-122.428;2022-12-07T08:41:34;101181.48;;;0.21;46.61
72486;BME280;60509;47.308;-122.428;2022-12-07T08:43:59;101180.02;;;-0.87;47.38
72486;BME280;60509;47.308;-122.428;2022-12-07T08:46:26;101181.74;;;-0.81;47.37
72486;BME280;60509;47.308;-122.428;2022-12-07T08:48:53;101179.31;;;0.03;45.81
72486;BME280;60509;47.308;-122.428;2022-12-07T08:51:16;101179.50;;;-0.47;46.75
72486;BME280;60509;47.308;-122.428;2022-12-07T08:53:41;101176.30;;;-0.76;47.12
72486;BME280;60509;47.308;-122.428;2022-12-07T08:56:07;101175.85;;;-0.31;46.60
72486;BME280;60509;47.308;-122.428;2022-12-07T08:58:33;101175.09;;;-0.82;46.97
72486;BME280;60509;47.308;-122.428;2022-12-07T09:00:58;101172.11;;;-0.59;46.40
72486;BME280;60509;47.308;-122.428;2022-12-07T09:03:24;101168.91;;;-0.20;46.09
72486;BME280;60509;47.308;-122.428;2022-12-07T09:05:49;101168.89;;;0.13;45.56
72486;BME280;60509;47.308;-122.428;2022-12-07T09:08:15;101167.54;;;-0.11;45.63
72486;BME280;60509;47.308;-122.428;2022-12-07T09:10:40;101165.74;;;-0.38;45.90
72486;BME280;60509;47.308;-122.428;2022-12-07T09:13:06;101165.74;;;-2.11;48.40
72486;BME280;60509;47.308;-122.428;2022-12-07T09:15:32;101161.79;;;-2.32;48.22
72486;BME280;60509;47.308;-122.428;2022-12-07T09:17:57;101161.05;;;-0.83;46.00
72486;BME280;60509;47.308;-122.428;2022-12-07T09:20:23;101163.89;;;-1.19;46.86
72486;BME280;60509;47.308;-122.428;2022-12-07T09:22:48;101162.04;;;-1.53;47.06
72486;BME280;60509;47.308;-122.428;2022-12-07T09:25:15;101161.02;;;0.19;45.74
72486;BME280;60509;47.308;-122.428;2022-12-07T09:27:39;101162.88;;;-2.07;47.99
72486;BME280;60509;47.308;-122.428;2022-12-07T09:30:07;101158.49;;;-2.36;48.20
72486;BME280;60509;47.308;-122.428;2022-12-07T09:32:31;101154.61;;;-0.78;46.47
72486;BME280;60509;47.308;-122.428;2022-12-07T09:34:56;101153.29;;;-0.28;46.52
72486;BME280;60509;47.308;-122.428;2022-12-07T09:37:22;101154.40;;;-2.07;48.99
72486;BME280;60509;47.308;-122.428;2022-12-07T09:39:47;101160.33;;;-0.56;46.82
72486;BME280;60509;47.308;-122.428;2022-12-07T09:42:26;101162.52;;;-0.13;46.27
72486;BME280;60509;47.308;-122.428;2022-12-07T09:44:40;101159.83;;;-0.89;47.28
72486;BME280;60509;47.308;-122.428;2022-12-07T09:47:04;101157.60;;;-0.48;46.45
72486;BME280;60509;47.308;-122.428;2022-12-07T09:49:31;101154.35;;;0.13;46.76
72486;BME280;60509;47.308;-122.428;2022-12-07T09:52:03;101153.13;;;0.73;45.40
72486;BME280;60509;47.308;-122.428;2022-12-07T09:54:21;101147.07;;;0.50;45.95
72486;BME280;60509;47.308;-122.428;2022-12-07T09:56:46;101146.18;;;-0.28;46.37
72486;BME280;60509;47.308;-122.428;2022-12-07T09:59:17;101143.87;;;0.49;45.80
72486;BME280;60509;47.308;-122.428;2022-12-07T10:01:39;101139.93;;;-0.34;46.47
72486;BME280;60509;47.308;-122.428;2022-12-07T10:04:12;101140.36;;;0.02;46.22
72486;BME280;60509;47.308;-122.428;2022-12-07T10:06:29;101141.79;;;0.36;46.01
72486;BME280;60509;47.308;-122.428;2022-12-07T10:08:54;101143.25;;;0.32;46.07
72486;BME280;60509;47.308;-122.428;2022-12-07T10:11:20;101144.58;;;-0.40;46.31
72486;BME280;60509;47.308;-122.428;2022-12-07T10:13:47;101145.88;;;-0.58;46.33
72486;BME280;60509;47.308;-122.428;2022-12-07T10:16:35;101144.36;;;-0.43;46.12
72486;BME280;60509;47.308;-122.428;2022-12-07T10:18:38;101143.63;;;-0.37;45.85
72486;BME280;60509;47.308;-122.428;2022-12-07T10:21:10;101147.09;;;-2.09;48.08
72486;BME280;60509;47.308;-122.428;2022-12-07T10:23:29;101143.49;;;-0.71;46.86
72486;BME280;60509;47.308;-122.428;2022-12-07T10:25:53;101143.85;;;-0.15;46.12
72486;BME280;60509;47.308;-122.428;2022-12-07T10:28:19;101142.50;;;-0.29;46.21
72486;BME280;60509;47.308;-122.428;2022-12-07T10:30:56;101141.35;;;-0.19;46.09
72486;BME280;60509;47.308;-122.428;2022-12-07T10:33:31;101141.83;;;0.20;45.50
72486;BME280;60509;47.308;-122.428;2022-12-07T10:35:43;101144.61;;;-0.81;46.85
72486;BME280;60509;47.308;-122.428;2022-12-07T10:38:07;101140.49;;;-1.40;47.51
72486;BME280;60509;47.308;-122.428;2022-12-07T10:40:31;101140.25;;;-0.56;46.40
72486;BME280;60509;47.308;-122.428;2022-12-07T10:43:03;101141.61;;;-0.82;46.98
72486;BME280;60509;47.308;-122.428;2022-12-07T10:45:19;101136.40;;;-0.20;46.13
72486;BME280;60509;47.308;-122.428;2022-12-07T10:47:47;101139.36;;;-0.23;46.24
72486;BME280;60509;47.308;-122.428;2022-12-07T10:50:52;101140.65;;;-0.45;46.59
72486;BME280;60509;47.308;-122.428;2022-12-07T10:52:45;101135.05;;;-0.16;46.12
72486;BME280;60509;47.308;-122.428;2022-12-07T10:55:15;101135.95;;;-1.34;47.57
72486;BME280;60509;47.308;-122.428;2022-12-07T10:57:36;101136.39;;;-0.89;46.72
72486;BME280;60509;47.308;-122.428;2022-12-07T11:00:14;101136.49;;;-0.54;46.44
72486;BME280;60509;47.308;-122.428;2022-12-07T11:02:31;101137.67;;;-1.51;47.51
72486;BME280;60509;47.308;-122.428;2022-12-07T11:04:55;101133.18;;;0.07;45.49
72486;BME280;60509;47.308;-122.428;2022-12-07T11:07:17;101133.14;;;-0.36;46.11
72486;BME280;60509;47.308;-122.428;2022-12-07T11:09:47;101129.94;;;0.43;45.11
72486;BME280;60509;47.308;-122.428;2022-12-07T11:12:05;101130.62;;;-0.43;45.59
72486;BME280;60509;47.308;-122.428;2022-12-07T11:14:28;101128.40;;;0.61;44.79
72486;BME280;60509;47.308;-122.428;2022-12-07T11:16:56;101129.52;;;0.11;44.98
72486;BME280;60509;47.308;-122.428;2022-12-07T11:19:27;101136.94;;;-1.60;47.65
72486;BME280;60509;47.308;-122.428;2022-12-07T11:21:48;101132.72;;;-0.33;45.99
72486;BME280;60509;47.308;-122.428;2022-12-07T11:24:13;101139.10;;;-3.41;49.06
72486;BME280;60509;47.308;-122.428;2022-12-07T11:26:45;101143.54;;;-4.34;50.17
72486;BME280;60509;47.308;-122.428;2022-12-07T11:29:13;101142.70;;;-3.61;50.61
72486;BME280;60509;47.308;-122.428;2022-12-07T11:31:31;101140.48;;;-2.81;49.08
72486;BME280;60509;47.308;-122.428;2022-12-07T11:33:53;101138.92;;;-2.74;48.38
72486;BME280;60509;47.308;-122.428;2022-12-07T11:36:32;101138.32;;;-2.62;48.99
72486;BME280;60509;47.308;-122.428;2022-12-07T11:38:45;101136.86;;;-2.50;48.69
72486;BME280;60509;47.308;-122.428;2022-12-07T11:41:08;101131.94;;;-2.36;48.94
72486;BME280;60509;47.308;-122.428;2022-12-07T11:43:35;101129.25;;;-1.84;47.73
72486;BME280;60509;47.308;-122.428;2022-12-07T11:46:03;101128.92;;;-0.26;45.87
72486;BME280;60509;47.308;-122.428;2022-12-07T11:48:30;101122.68;;;-1.78;47.71
72486;BME280;60509;47.308;-122.428;2022-12-07T11:50:52;101120.96;;;-1.73;47.95
72486;BME280;60509;47.308;-122.428;2022-12-07T11:53:18;101121.96;;;-0.24;46.35
72486;BME280;60509;47.308;-122.428;2022-12-07T11:55:45;101119.09;;;-0.18;46.34
72486;BME280;60509;47.308;-122.428;2022-12-07T11:58:18;101122.33;;;-0.74;47.07
72486;BME280;60509;47.308;-122.428;2022-12-07T12:00:33;101123.62;;;-0.82;47.10
72486;BME280;60509;47.308;-122.428;2022-12-07T12:03:01;101125.90;;;-0.75;46.86
72486;BME280;60509;47.308;-122.428;2022-12-07T12:05:24;101130.11;;;-3.35;50.54
72486;BME280;60509;47.308;-122.428;2022-12-07T12:07:54;101128.78;;;-2.95;50.75
72486;BME280;60509;47.308;-122.428;2022-12-07T12:10:19;101130.12;;;-2.91;49.68